Terminal Aerodrome Forecast
Issued by NWS

Home | Current Version | Previous Version | Text Only | Print | Product List | Glossary On
Versions: 1 2 3 4 5 6 7 8 9 10 11 12 13 14 15
000
FTUS43 KJKL 021727
TAFSJS
TAF
KSJS 021727Z 0218/0318 VRB06KT P6SM SCT040
     FM030800 00000KT 4SM BR SKC
      TEMPO 0309/0312 2SM BR SKC
     FM031300 35004KT P6SM SKC=

USA.gov is the U.S. government's official web portal to all federal, state and local government web resources and services.